sensor_id;sensor_type;location;lat;lon;timestamp;temperature;humidity
37240;DHT22;23130;48.760;9.178;2022-10-15T00:01:38;13.70;99.90
37240;DHT22;23130;48.760;9.178;2022-10-15T00:04:04;13.60;99.90
37240;DHT22;23130;48.760;9.178;2022-10-15T00:06:29;13.70;99.90
37240;DHT22;23130;48.760;9.178;2022-10-15T00:08:55;13.70;99.90
37240;DHT22;23130;48.760;9.178;2022-10-15T00:11:22;13.70;99.90
37240;DHT22;23130;48.760;9.178;2022-10-15T00:13:49;13.70;99.90
37240;DHT22;23130;48.760;9.178;2022-10-15T00:16:21;13.80;99.90
37240;DHT22;23130;48.760;9.178;2022-10-15T00:18:47;13.80;99.90
37240;DHT22;23130;48.760;9.178;2022-10-15T00:21:16;13.80;99.90
37240;DHT22;23130;48.760;9.178;2022-10-15T00:23:42;13.80;99.90
37240;DHT22;23130;48.760;9.178;2022-10-15T00:26:11;13.70;99.90
37240;DHT22;23130;48.760;9.178;2022-10-15T00:28:37;13.80;99.90
37240;DHT22;23130;48.760;9.178;2022-10-15T00:31:06;13.80;99.90
37240;DHT22;23130;48.760;9.178;2022-10-15T00:33:32;13.70;99.90
37240;DHT22;23130;48.760;9.178;2022-10-15T00:36:05;13.70;99.90
37240;DHT22;23130;48.760;9.178;2022-10-15T00:38:31;13.80;99.90
37240;DHT22;23130;48.760;9.178;2022-10-15T00:40:57;13.80;99.90
37240;DHT22;23130;48.760;9.178;2022-10-15T00:43:46;13.90;99.90
37240;DHT22;23130;48.760;9.178;2022-10-15T00:46:24;13.80;99.90
37240;DHT22;23130;48.760;9.178;2022-10-15T00:51:33;13.80;99.90
37240;DHT22;23130;48.760;9.178;2022-10-15T00:54:00;13.80;99.90
37240;DHT22;23130;48.760;9.178;2022-10-15T00:56:26;13.90;99.90
37240;DHT22;23130;48.760;9.178;2022-10-15T00:58:55;13.90;99.90
37240;DHT22;23130;48.760;9.178;2022-10-15T01:01:21;13.90;99.90
37240;DHT22;23130;48.760;9.178;2022-10-15T01:03:50;13.90;99.90
37240;DHT22;23130;48.760;9.178;2022-10-15T01:06:16;13.90;99.90
37240;DHT22;23130;48.760;9.178;2022-10-15T01:08:42;13.90;99.90
37240;DHT22;23130;48.760;9.178;2022-10-15T01:20:01;13.90;99.90
37240;DHT22;23130;48.760;9.178;2022-10-15T01:25:58;13.90;99.90
37240;DHT22;23130;48.760;9.178;2022-10-15T01:31:39;13.90;99.90
37240;DHT22;23130;48.760;9.178;2022-10-15T01:34:37;14.00;99.90
37240;DHT22;23130;48.760;9.178;2022-10-15T01:37:32;14.00;99.90
37240;DHT22;23130;48.760;9.178;2022-10-15T01:40:41;14.00;99.90
37240;DHT22;23130;48.760;9.178;2022-10-15T01:42:59;14.00;99.90
37240;DHT22;23130;48.760;9.178;2022-10-15T01:48:02;14.00;99.90
37240;DHT22;23130;48.760;9.178;2022-10-15T01:50:31;14.00;99.90
37240;DHT22;23130;48.760;9.178;2022-10-15T01:52:59;14.00;99.90
37240;DHT22;23130;48.760;9.178;2022-10-15T01:55:26;14.00;99.90
37240;DHT22;23130;48.760;9.178;2022-10-15T01:57:55;14.00;99.90
37240;DHT22;23130;48.760;9.178;2022-10-15T02:00:22;14.00;99.90
37240;DHT22;23130;48.760;9.178;2022-10-15T02:02:48;14.00;99.90
37240;DHT22;23130;48.760;9.178;2022-10-15T02:05:22;14.00;99.90
37240;DHT22;23130;48.760;9.178;2022-10-15T02:11:04;14.10;99.90
37240;DHT22;23130;48.760;9.178;2022-10-15T02:14:18;14.10;99.90
37240;DHT22;23130;48.760;9.178;2022-10-15T02:19:21;14.10;99.90
37240;DHT22;23130;48.760;9.178;2022-10-15T02:22:16;14.10;99.90
37240;DHT22;23130;48.760;9.178;2022-10-15T02:24:49;14.20;99.90
37240;DHT22;23130;48.760;9.178;2022-10-15T02:27:18;14.20;99.90
37240;DHT22;23130;48.760;9.178;2022-10-15T02:29:45;14.10;99.90
37240;DHT22;23130;48.760;9.178;2022-10-15T02:32:14;14.10;99.90
37240;DHT22;23130;48.760;9.178;2022-10-15T02:34:40;14.20;99.90
37240;DHT22;23130;48.760;9.178;2022-10-15T02:37:07;14.20;99.90
37240;DHT22;23130;48.760;9.178;2022-10-15T02:39:33;14.20;99.90
37240;DHT22;23130;48.760;9.178;2022-10-15T02:41:59;14.20;99.90
37240;DHT22;23130;48.760;9.178;2022-10-15T02:44:25;14.20;99.90
37240;DHT22;23130;48.760;9.178;2022-10-15T02:46:51;14.20;99.90
37240;DHT22;23130;48.760;9.178;2022-10-15T02:49:17;14.20;99.90
37240;DHT22;23130;48.760;9.178;2022-10-15T02:51:43;14.20;99.90
37240;DHT22;23130;48.760;9.178;2022-10-15T02:54:08;14.20;99.90
37240;DHT22;23130;48.760;9.178;2022-10-15T02:56:34;14.20;99.90
37240;DHT22;23130;48.760;9.178;2022-10-15T02:59:03;14.30;99.90
37240;DHT22;23130;48.760;9.178;2022-10-15T03:01:30;14.30;99.90
37240;DHT22;23130;48.760;9.178;2022-10-15T03:03:56;14.40;99.90
37240;DHT22;23130;48.760;9.178;2022-10-15T03:06:21;14.40;99.90
37240;DHT22;23130;48.760;9.178;2022-10-15T03:08:47;14.40;99.90
37240;DHT22;23130;48.760;9.178;2022-10-15T03:11:13;14.50;99.90
37240;DHT22;23130;48.760;9.178;2022-10-15T03:13:39;14.50;99.90
37240;DHT22;23130;48.760;9.178;2022-10-15T03:16:06;14.50;99.90
37240;DHT22;23130;48.760;9.178;2022-10-15T03:18:33;14.50;99.90
37240;DHT22;23130;48.760;9.178;2022-10-15T03:20:58;14.40;99.90
37240;DHT22;23130;48.760;9.178;2022-10-15T03:23:24;14.40;99.90
37240;DHT22;23130;48.760;9.178;2022-10-15T03:25:50;14.40;99.90
37240;DHT22;23130;48.760;9.178;2022-10-15T03:28:17;14.50;99.90
37240;DHT22;23130;48.760;9.178;2022-10-15T03:30:42;14.50;99.90
37240;DHT22;23130;48.760;9.178;2022-10-15T03:33:08;14.50;99.90
37240;DHT22;23130;48.760;9.178;2022-10-15T03:35:34;14.50;99.90
37240;DHT22;23130;48.760;9.178;2022-10-15T03:38:00;14.50;99.90
37240;DHT22;23130;48.760;9.178;2022-10-15T03:40:25;14.50;99.90
37240;DHT22;23130;48.760;9.178;2022-10-15T03:42:52;14.60;99.90
37240;DHT22;23130;48.760;9.178;2022-10-15T03:45:18;14.60;99.90
37240;DHT22;23130;48.760;9.178;2022-10-15T03:47:44;14.60;99.90
37240;DHT22;23130;48.760;9.178;2022-10-15T03:50:09;14.50;99.90
37240;DHT22;23130;48.760;9.178;2022-10-15T03:52:36;14.60;99.90
37240;DHT22;23130;48.760;9.178;2022-10-15T03:55:02;14.60;99.90
37240;DHT22;23130;48.760;9.178;2022-10-15T03:57:27;14.60;99.90
37240;DHT22;23130;48.760;9.178;2022-10-15T03:59:53;14.60;99.90
37240;DHT22;23130;48.760;9.178;2022-10-15T04:02:19;14.60;99.90
37240;DHT22;23130;48.760;9.178;2022-10-15T04:04:44;14.60;99.90
37240;DHT22;23130;48.760;9.178;2022-10-15T04:07:10;14.60;99.90
37240;DHT22;23130;48.760;9.178;2022-10-15T04:09:35;14.60;99.90
37240;DHT22;23130;48.760;9.178;2022-10-15T04:12:01;14.60;99.90
37240;DHT22;23130;48.760;9.178;2022-10-15T04:14:26;14.60;99.90
37240;DHT22;23130;48.760;9.178;2022-10-15T04:16:52;14.60;99.90
37240;DHT22;23130;48.760;9.178;2022-10-15T04:19:17;14.60;99.90
37240;DHT22;23130;48.760;9.178;2022-10-15T04:21:43;14.60;99.90
37240;DHT22;23130;48.760;9.178;2022-10-15T04:24:09;14.60;99.90
37240;DHT22;23130;48.760;9.178;2022-10-15T04:26:34;14.60;99.90
37240;DHT22;23130;48.760;9.178;2022-10-15T04:29:00;14.60;99.90
37240;DHT22;23130;48.760;9.178;2022-10-15T04:31:25;14.60;99.90
37240;DHT22;23130;48.760;9.178;2022-10-15T04:33:51;14.60;99.90
37240;DHT22;23130;48.760;9.178;2022-10-15T04:36:16;14.60;99.90
37240;DHT22;23130;48.760;9.178;2022-10-15T04:38:42;14.60;99.90
37240;DHT22;23130;48.760;9.178;2022-10-15T04:41:09;14.50;99.90
37240;DHT22;23130;48.760;9.178;2022-10-15T04:43:36;14.50;99.90
37240;DHT22;23130;48.760;9.178;2022-10-15T04:46:04;14.50;99.90
37240;DHT22;23130;48.760;9.178;2022-10-15T04:48:31;14.50;99.90
37240;DHT22;23130;48.760;9.178;2022-10-15T04:53:30;14.60;99.90
37240;DHT22;23130;48.760;9.178;2022-10-15T04:56:00;14.50;99.90
37240;DHT22;23130;48.760;9.178;2022-10-15T04:58:25;14.50;99.90
37240;DHT22;23130;48.760;9.178;2022-10-15T05:00:53;14.50;99.90
37240;DHT22;23130;48.760;9.178;2022-10-15T05:03:18;14.50;99.90
37240;DHT22;23130;48.760;9.178;2022-10-15T05:05:44;14.50;99.90
37240;DHT22;23130;48.760;9.178;2022-10-15T05:08:09;14.50;99.90
37240;DHT22;23130;48.760;9.178;2022-10-15T05:10:35;14.50;99.90
37240;DHT22;23130;48.760;9.178;2022-10-15T05:13:00;14.50;99.90
37240;DHT22;23130;48.760;9.178;2022-10-15T05:15:27;14.50;99.90
37240;DHT22;23130;48.760;9.178;2022-10-15T05:17:53;14.40;99.90
37240;DHT22;23130;48.760;9.178;2022-10-15T05:20:19;14.40;99.90
37240;DHT22;23130;48.760;9.178;2022-10-15T05:22:44;14.40;99.90
37240;DHT22;23130;48.760;9.178;2022-10-15T05:25:10;14.40;99.90
37240;DHT22;23130;48.760;9.178;2022-10-15T05:27:35;14.40;99.90
37240;DHT22;23130;48.760;9.178;2022-10-15T05:30:01;14.40;99.90
37240;DHT22;23130;48.760;9.178;2022-10-15T05:32:26;14.40;99.90
37240;DHT22;23130;48.760;9.178;2022-10-15T05:34:52;14.40;99.90
37240;DHT22;23130;48.760;9.178;2022-10-15T05:37:17;14.40;99.90
37240;DHT22;23130;48.760;9.178;2022-10-15T05:39:43;14.40;99.90
37240;DHT22;23130;48.760;9.178;2022-10-15T05:42:08;14.40;99.90
37240;DHT22;23130;48.760;9.178;2022-10-15T05:44:34;14.40;99.90
37240;DHT22;23130;48.760;9.178;2022-10-15T05:47:00;14.30;99.90
37240;DHT22;23130;48.760;9.178;2022-10-15T05:49:25;14.40;99.90
37240;DHT22;23130;48.760;9.178;2022-10-15T05:51:51;14.40;99.90
37240;DHT22;23130;48.760;9.178;2022-10-15T05:54:16;14.30;99.90
37240;DHT22;23130;48.760;9.178;2022-10-15T05:56:42;14.30;99.90
37240;DHT22;23130;48.760;9.178;2022-10-15T05:59:08;14.30;99.90
37240;DHT22;23130;48.760;9.178;2022-10-15T06:01:33;14.30;99.90
37240;DHT22;23130;48.760;9.178;2022-10-15T06:03:59;14.30;99.90
37240;DHT22;23130;48.760;9.178;2022-10-15T06:06:25;14.30;99.90
37240;DHT22;23130;48.760;9.178;2022-10-15T06:08:52;14.30;99.90
37240;DHT22;23130;48.760;9.178;2022-10-15T06:11:18;14.30;99.90
37240;DHT22;23130;48.760;9.178;2022-10-15T06:13:45;14.30;99.90
37240;DHT22;23130;48.760;9.178;2022-10-15T06:16:11;14.30;99.90
37240;DHT22;23130;48.760;9.178;2022-10-15T06:18:38;14.30;99.90
37240;DHT22;23130;48.760;9.178;2022-10-15T06:21:05;14.30;99.90
37240;DHT22;23130;48.760;9.178;2022-10-15T06:23:31;14.40;99.90
37240;DHT22;23130;48.760;9.178;2022-10-15T06:26:01;14.40;99.90
37240;DHT22;23130;48.760;9.178;2022-10-15T06:28:26;14.40;99.90
37240;DHT22;23130;48.760;9.178;2022-10-15T06:30:52;14.40;99.90
37240;DHT22;23130;48.760;9.178;2022-10-15T06:33:17;14.40;99.90
37240;DHT22;23130;48.760;9.178;2022-10-15T06:35:43;14.40;99.90
37240;DHT22;23130;48.760;9.178;2022-10-15T06:38:09;14.40;99.90
37240;DHT22;23130;48.760;9.178;2022-10-15T06:40:36;14.40;99.90
37240;DHT22;23130;48.760;9.178;2022-10-15T06:43:03;14.40;99.90
37240;DHT22;23130;48.760;9.178;2022-10-15T06:45:29;14.40;99.90
37240;DHT22;23130;48.760;9.178;2022-10-15T06:47:55;14.40;99.90
37240;DHT22;23130;48.760;9.178;2022-10-15T06:50:20;14.40;99.90
37240;DHT22;23130;48.760;9.178;2022-10-15T06:52:46;14.40;99.90
37240;DHT22;23130;48.760;9.178;2022-10-15T06:55:11;14.40;99.90
37240;DHT22;23130;48.760;9.178;2022-10-15T06:57:37;14.40;99.90
37240;DHT22;23130;48.760;9.178;2022-10-15T07:00:03;14.40;99.90
37240;DHT22;23130;48.760;9.178;2022-10-15T07:02:29;14.40;99.90
37240;DHT22;23130;48.760;9.178;2022-10-15T07:05:03;14.40;99.90
37240;DHT22;23130;48.760;9.178;2022-10-15T07:07:29;14.40;99.90
37240;DHT22;23130;48.760;9.178;2022-10-15T07:09:55;14.40;99.90
37240;DHT22;23130;48.760;9.178;2022-10-15T07:12:20;14.40;99.90
37240;DHT22;23130;48.760;9.178;2022-10-15T07:14:47;14.50;99.90
37240;DHT22;23130;48.760;9.178;2022-10-15T07:17:14;14.50;99.90
37240;DHT22;23130;48.760;9.178;2022-10-15T07:19:39;14.50;99.90
37240;DHT22;23130;48.760;9.178;2022-10-15T07:22:05;14.50;99.90
37240;DHT22;23130;48.760;9.178;2022-10-15T07:24:30;14.50;99.90
37240;DHT22;23130;48.760;9.178;2022-10-15T07:26:56;14.50;99.90
37240;DHT22;23130;48.760;9.178;2022-10-15T07:29:21;14.60;99.90
37240;DHT22;23130;48.760;9.178;2022-10-15T07:31:47;14.60;99.90
37240;DHT22;23130;48.760;9.178;2022-10-15T07:34:13;14.70;99.90
37240;DHT22;23130;48.760;9.178;2022-10-15T07:36:38;14.70;99.90
37240;DHT22;23130;48.760;9.178;2022-10-15T07:39:04;14.70;99.90
37240;DHT22;23130;48.760;9.178;2022-10-15T07:41:30;14.80;99.90
37240;DHT22;23130;48.760;9.178;2022-10-15T07:43:55;14.90;99.90
37240;DHT22;23130;48.760;9.178;2022-10-15T07:46:21;15.00;99.90
37240;DHT22;23130;48.760;9.178;2022-10-15T07:48:47;15.00;99.90
37240;DHT22;23130;48.760;9.178;2022-10-15T07:51:12;15.10;99.90
37240;DHT22;23130;48.760;9.178;2022-10-15T07:53:38;15.10;99.90
37240;DHT22;23130;48.760;9.178;2022-10-15T07:56:06;15.10;99.90
37240;DHT22;23130;48.760;9.178;2022-10-15T07:58:36;15.10;99.90
37240;DHT22;23130;48.760;9.178;2022-10-15T08:01:04;15.20;99.90
37240;DHT22;23130;48.760;9.178;2022-10-15T08:03:30;15.10;99.90
37240;DHT22;23130;48.760;9.178;2022-10-15T08:05:58;15.20;99.90
37240;DHT22;23130;48.760;9.178;2022-10-15T08:08:23;15.10;99.90
37240;DHT22;23130;48.760;9.178;2022-10-15T08:10:49;15.10;99.90
37240;DHT22;23130;48.760;9.178;2022-10-15T08:13:14;15.00;99.90
37240;DHT22;23130;48.760;9.178;2022-10-15T08:15:41;15.00;99.90
37240;DHT22;23130;48.760;9.178;2022-10-15T08:18:08;15.10;99.90
37240;DHT22;23130;48.760;9.178;2022-10-15T08:20:35;15.10;99.90
37240;DHT22;23130;48.760;9.178;2022-10-15T08:23:01;15.10;99.90
37240;DHT22;23130;48.760;9.178;2022-10-15T08:25:27;15.20;99.90
37240;DHT22;23130;48.760;9.178;2022-10-15T08:27:53;15.40;99.90
37240;DHT22;23130;48.760;9.178;2022-10-15T08:30:18;15.60;99.90
37240;DHT22;23130;48.760;9.178;2022-10-15T08:32:44;15.70;99.90
37240;DHT22;23130;48.760;9.178;2022-10-15T08:35:10;15.90;99.90
37240;DHT22;23130;48.760;9.178;2022-10-15T08:37:35;16.00;99.90
37240;DHT22;23130;48.760;9.178;2022-10-15T08:40:02;16.20;99.90
37240;DHT22;23130;48.760;9.178;2022-10-15T08:42:41;16.40;99.90
37240;DHT22;23130;48.760;9.178;2022-10-15T08:45:22;16.60;99.90
37240;DHT22;23130;48.760;9.178;2022-10-15T08:48:00;16.50;99.90
37240;DHT22;23130;48.760;9.178;2022-10-15T08:50:45;16.60;99.90
37240;DHT22;23130;48.760;9.178;2022-10-15T08:53:18;16.40;99.90
37240;DHT22;23130;48.760;9.178;2022-10-15T08:55:48;16.30;99.90
37240;DHT22;23130;48.760;9.178;2022-10-15T09:01:17;16.20;99.90
37240;DHT22;23130;48.760;9.178;2022-10-15T09:06:49;16.10;99.90
37240;DHT22;23130;48.760;9.178;2022-10-15T09:14:49;16.30;99.90
37240;DHT22;23130;48.760;9.178;2022-10-15T09:17:25;16.40;99.90
37240;DHT22;23130;48.760;9.178;2022-10-15T09:19:55;16.40;99.90
37240;DHT22;23130;48.760;9.178;2022-10-15T09:22:24;16.40;99.90
37240;DHT22;23130;48.760;9.178;2022-10-15T09:24:51;16.40;99.90
37240;DHT22;23130;48.760;9.178;2022-10-15T09:32:42;16.40;99.90
37240;DHT22;23130;48.760;9.178;2022-10-15T09:35:27;16.40;99.90
37240;DHT22;23130;48.760;9.178;2022-10-15T09:40:48;16.50;99.90
37240;DHT22;23130;48.760;9.178;2022-10-15T09:43:24;16.60;99.90
37240;DHT22;23130;48.760;9.178;2022-10-15T09:45:55;16.70;99.90
37240;DHT22;23130;48.760;9.178;2022-10-15T09:48:21;16.80;99.90
37240;DHT22;23130;48.760;9.178;2022-10-15T09:51:15;16.90;99.90
37240;DHT22;23130;48.760;9.178;2022-10-15T09:53:56;17.00;99.90
37240;DHT22;23130;48.760;9.178;2022-10-15T09:56:35;17.20;99.90
37240;DHT22;23130;48.760;9.178;2022-10-15T09:59:01;17.40;99.90
37240;DHT22;23130;48.760;9.178;2022-10-15T10:01:28;17.50;99.90
37240;DHT22;23130;48.760;9.178;2022-10-15T10:04:28;17.60;99.90
37240;DHT22;23130;48.760;9.178;2022-10-15T10:06:57;17.90;99.90
37240;DHT22;23130;48.760;9.178;2022-10-15T10:09:28;18.10;99.90
37240;DHT22;23130;48.760;9.178;2022-10-15T10:11:59;18.10;99.90
37240;DHT22;23130;48.760;9.178;2022-10-15T10:14:31;18.20;99.90
37240;DHT22;23130;48.760;9.178;2022-10-15T10:17:17;18.30;99.90
37240;DHT22;23130;48.760;9.178;2022-10-15T10:19:46;18.20;99.90
37240;DHT22;23130;48.760;9.178;2022-10-15T10:22:26;18.30;99.90
37240;DHT22;23130;48.760;9.178;2022-10-15T10:24:51;18.40;99.90
37240;DHT22;23130;48.760;9.178;2022-10-15T10:27:22;18.40;99.90
37240;DHT22;23130;48.760;9.178;2022-10-15T10:30:01;18.40;99.90
37240;DHT22;23130;48.760;9.178;2022-10-15T10:32:29;18.50;99.90
37240;DHT22;23130;48.760;9.178;2022-10-15T10:34:55;18.60;99.90
37240;DHT22;23130;48.760;9.178;2022-10-15T10:37:22;18.50;99.90
37240;DHT22;23130;48.760;9.178;2022-10-15T10:39:53;18.40;99.90
37240;DHT22;23130;48.760;9.178;2022-10-15T10:42:32;18.30;99.90
37240;DHT22;23130;48.760;9.178;2022-10-15T10:45:20;18.20;99.90
37240;DHT22;23130;48.760;9.178;2022-10-15T10:47:46;18.20;99.90
37240;DHT22;23130;48.760;9.178;2022-10-15T10:52:51;18.30;99.90
37240;DHT22;23130;48.760;9.178;2022-10-15T10:55:20;18.40;99.90
37240;DHT22;23130;48.760;9.178;2022-10-15T10:57:57;18.60;99.90
37240;DHT22;23130;48.760;9.178;2022-10-15T11:00:45;18.80;99.90
37240;DHT22;23130;48.760;9.178;2022-10-15T11:03:34;18.90;99.90
37240;DHT22;23130;48.760;9.178;2022-10-15T11:11:28;19.20;99.90
37240;DHT22;23130;48.760;9.178;2022-10-15T11:14:14;19.10;99.90
37240;DHT22;23130;48.760;9.178;2022-10-15T11:17:03;19.10;99.90
37240;DHT22;23130;48.760;9.178;2022-10-15T11:22:55;19.00;99.90
37240;DHT22;23130;48.760;9.178;2022-10-15T11:25:40;18.90;99.90
37240;DHT22;23130;48.760;9.178;2022-10-15T11:29:33;18.80;99.90
37240;DHT22;23130;48.760;9.178;2022-10-15T11:38:02;18.70;99.90
37240;DHT22;23130;48.760;9.178;2022-10-15T11:43:21;18.70;99.90
37240;DHT22;23130;48.760;9.178;2022-10-15T11:46:03;18.70;99.90
37240;DHT22;23130;48.760;9.178;2022-10-15T11:48:43;18.80;99.90
37240;DHT22;23130;48.760;9.178;2022-10-15T11:56:38;19.10;99.90
37240;DHT22;23130;48.760;9.178;2022-10-15T12:02:05;19.20;99.90
37240;DHT22;23130;48.760;9.178;2022-10-15T12:04:46;19.50;99.90
37240;DHT22;23130;48.760;9.178;2022-10-15T12:07:21;19.50;99.90
37240;DHT22;23130;48.760;9.178;2022-10-15T12:09:53;19.40;99.90
37240;DHT22;23130;48.760;9.178;2022-10-15T12:13:16;19.20;99.90
37240;DHT22;23130;48.760;9.178;2022-10-15T12:18:57;19.30;99.90
37240;DHT22;23130;48.760;9.178;2022-10-15T12:21:36;19.30;99.90
37240;DHT22;23130;48.760;9.178;2022-10-15T12:24:04;19.30;99.90
37240;DHT22;23130;48.760;9.178;2022-10-15T12:26:35;19.30;99.90
37240;DHT22;23130;48.760;9.178;2022-10-15T12:29:04;19.30;99.90
37240;DHT22;23130;48.760;9.178;2022-10-15T12:31:45;19.30;99.90
37240;DHT22;23130;48.760;9.178;2022-10-15T12:34:43;19.20;99.90
37240;DHT22;23130;48.760;9.178;2022-10-15T12:37:20;19.00;99.90
37240;DHT22;23130;48.760;9.178;2022-10-15T12:39:57;18.90;99.90
37240;DHT22;23130;48.760;9.178;2022-10-15T12:44:58;18.60;99.90
37240;DHT22;23130;48.760;9.178;2022-10-15T12:50:27;18.50;99.90
37240;DHT22;23130;48.760;9.178;2022-10-15T12:58:05;18.40;99.90
37240;DHT22;23130;48.760;9.178;2022-10-15T13:00:37;18.40;99.90
37240;DHT22;23130;48.760;9.178;2022-10-15T13:03:13;18.20;99.90
37240;DHT22;23130;48.760;9.178;2022-10-15T13:05:40;18.00;99.90
37240;DHT22;23130;48.760;9.178;2022-10-15T13:08:20;17.80;99.90
37240;DHT22;23130;48.760;9.178;2022-10-15T13:10:56;17.80;99.90
37240;DHT22;23130;48.760;9.178;2022-10-15T13:13:30;17.70;99.90
37240;DHT22;23130;48.760;9.178;2022-10-15T13:16:07;17.50;99.90
37240;DHT22;23130;48.760;9.178;2022-10-15T13:18:34;17.50;99.90
37240;DHT22;23130;48.760;9.178;2022-10-15T13:21:00;17.50;99.90
37240;DHT22;23130;48.760;9.178;2022-10-15T13:23:31;17.50;99.90
37240;DHT22;23130;48.760;9.178;2022-10-15T13:26:20;17.50;99.90
37240;DHT22;23130;48.760;9.178;2022-10-15T13:28:50;17.30;99.90
37240;DHT22;23130;48.760;9.178;2022-10-15T13:33:49;17.20;99.90
37240;DHT22;23130;48.760;9.178;2022-10-15T13:36:29;17.20;99.90
37240;DHT22;23130;48.760;9.178;2022-10-15T13:38:58;17.10;99.90
37240;DHT22;23130;48.760;9.178;2022-10-15T13:41:26;17.00;99.90
37240;DHT22;23130;48.760;9.178;2022-10-15T13:43:53;17.00;99.90
37240;DHT22;23130;48.760;9.178;2022-10-15T13:46:24;16.90;99.90
37240;DHT22;23130;48.760;9.178;2022-10-15T13:48:56;16.90;99.90
37240;DHT22;23130;48.760;9.178;2022-10-15T13:51:22;16.90;99.90
37240;DHT22;23130;48.760;9.178;2022-10-15T13:53:47;16.80;99.90
37240;DHT22;23130;48.760;9.178;2022-10-15T13:56:28;16.80;99.90
37240;DHT22;23130;48.760;9.178;2022-10-15T13:58:55;16.80;99.90
37240;DHT22;23130;48.760;9.178;2022-10-15T14:01:23;16.80;99.90
37240;DHT22;23130;48.760;9.178;2022-10-15T14:03:57;16.70;99.90
37240;DHT22;23130;48.760;9.178;2022-10-15T14:08:55;16.50;99.90
37240;DHT22;23130;48.760;9.178;2022-10-15T14:11:22;16.50;99.90
37240;DHT22;23130;48.760;9.178;2022-10-15T14:13:53;16.40;99.90
37240;DHT22;23130;48.760;9.178;2022-10-15T14:16:29;16.30;99.90
37240;DHT22;23130;48.760;9.178;2022-10-15T14:19:09;16.40;99.90
37240;DHT22;23130;48.760;9.178;2022-10-15T14:21:35;16.30;99.90
37240;DHT22;23130;48.760;9.178;2022-10-15T14:26:32;16.30;99.90
37240;DHT22;23130;48.760;9.178;2022-10-15T14:29:00;16.30;99.90
37240;DHT22;23130;48.760;9.178;2022-10-15T14:31:46;16.30;99.90
37240;DHT22;23130;48.760;9.178;2022-10-15T14:34:36;16.30;99.90
37240;DHT22;23130;48.760;9.178;2022-10-15T14:47:54;16.50;99.90
37240;DHT22;23130;48.760;9.178;2022-10-15T14:50:23;16.50;99.90
37240;DHT22;23130;48.760;9.178;2022-10-15T14:52:51;16.70;99.90
37240;DHT22;23130;48.760;9.178;2022-10-15T14:55:37;16.70;99.90
37240;DHT22;23130;48.760;9.178;2022-10-15T14:58:10;16.70;99.90
37240;DHT22;23130;48.760;9.178;2022-10-15T15:00:47;16.70;99.90
37240;DHT22;23130;48.760;9.178;2022-10-15T15:03:23;16.70;99.90
37240;DHT22;23130;48.760;9.178;2022-10-15T15:05:52;16.70;99.90
37240;DHT22;23130;48.760;9.178;2022-10-15T15:08:19;16.80;99.90
37240;DHT22;23130;48.760;9.178;2022-10-15T15:10:45;16.80;99.90
37240;DHT22;23130;48.760;9.178;2022-10-15T15:13:17;16.80;99.90
37240;DHT22;23130;48.760;9.178;2022-10-15T15:15:43;16.90;99.90
37240;DHT22;23130;48.760;9.178;2022-10-15T15:18:10;17.10;99.90
37240;DHT22;23130;48.760;9.178;2022-10-15T15:20:35;17.20;99.90
37240;DHT22;23130;48.760;9.178;2022-10-15T15:23:01;17.30;99.90
37240;DHT22;23130;48.760;9.178;2022-10-15T15:25:29;17.30;99.90
37240;DHT22;23130;48.760;9.178;2022-10-15T15:27:56;17.30;99.90
37240;DHT22;23130;48.760;9.178;2022-10-15T15:30:24;17.30;99.90
37240;DHT22;23130;48.760;9.178;2022-10-15T15:32:50;17.30;99.90
37240;DHT22;23130;48.760;9.178;2022-10-15T15:35:38;17.30;99.90
37240;DHT22;23130;48.760;9.178;2022-10-15T15:38:06;17.30;99.90
37240;DHT22;23130;48.760;9.178;2022-10-15T15:40:32;17.30;99.90
37240;DHT22;23130;48.760;9.178;2022-10-15T15:42:57;17.20;99.90
37240;DHT22;23130;48.760;9.178;2022-10-15T15:45:25;17.40;99.90
37240;DHT22;23130;48.760;9.178;2022-10-15T15:47:51;17.30;99.90
37240;DHT22;23130;48.760;9.178;2022-10-15T15:50:18;17.30;99.90
37240;DHT22;23130;48.760;9.178;2022-10-15T15:52:44;17.30;99.90
37240;DHT22;23130;48.760;9.178;2022-10-15T15:55:11;17.10;99.90
37240;DHT22;23130;48.760;9.178;2022-10-15T15:57:37;17.00;99.90
37240;DHT22;23130;48.760;9.178;2022-10-15T16:00:07;16.90;99.90
37240;DHT22;23130;48.760;9.178;2022-10-15T16:02:34;16.80;99.90
37240;DHT22;23130;48.760;9.178;2022-10-15T16:05:00;16.70;99.90
37240;DHT22;23130;48.760;9.178;2022-10-15T16:07:28;16.70;99.90
37240;DHT22;23130;48.760;9.178;2022-10-15T16:09:54;16.60;99.90
37240;DHT22;23130;48.760;9.178;2022-10-15T16:12:19;16.60;99.90
37240;DHT22;23130;48.760;9.178;2022-10-15T16:14:45;16.50;99.90
37240;DHT22;23130;48.760;9.178;2022-10-15T16:17:10;16.50;99.90
37240;DHT22;23130;48.760;9.178;2022-10-15T16:19:36;16.40;99.90
37240;DHT22;23130;48.760;9.178;2022-10-15T16:22:01;16.30;99.90
37240;DHT22;23130;48.760;9.178;2022-10-15T16:24:27;16.20;99.90
37240;DHT22;23130;48.760;9.178;2022-10-15T16:26:53;16.10;99.90
37240;DHT22;23130;48.760;9.178;2022-10-15T16:29:18;16.00;99.90
37240;DHT22;23130;48.760;9.178;2022-10-15T16:31:44;15.90;99.90
37240;DHT22;23130;48.760;9.178;2022-10-15T16:34:09;15.80;99.90
37240;DHT22;23130;48.760;9.178;2022-10-15T16:36:36;15.80;99.90
37240;DHT22;23130;48.760;9.178;2022-10-15T16:39:03;15.70;99.90
37240;DHT22;23130;48.760;9.178;2022-10-15T16:41:29;15.80;99.90
37240;DHT22;23130;48.760;9.178;2022-10-15T16:43:54;15.80;99.90
37240;DHT22;23130;48.760;9.178;2022-10-15T16:46:20;15.70;99.90
37240;DHT22;23130;48.760;9.178;2022-10-15T16:48:54;15.70;99.90
37240;DHT22;23130;48.760;9.178;2022-10-15T16:51:20;15.70;99.90
37240;DHT22;23130;48.760;9.178;2022-10-15T16:53:47;15.70;99.90
37240;DHT22;23130;48.760;9.178;2022-10-15T16:56:21;15.70;99.90
37240;DHT22;23130;48.760;9.178;2022-10-15T16:58:47;15.60;99.90
37240;DHT22;23130;48.760;9.178;2022-10-15T17:01:16;15.70;99.90
37240;DHT22;23130;48.760;9.178;2022-10-15T17:03:42;15.70;99.90
37240;DHT22;23130;48.760;9.178;2022-10-15T17:06:11;15.70;99.90
37240;DHT22;23130;48.760;9.178;2022-10-15T17:08:49;15.80;99.90
37240;DHT22;23130;48.760;9.178;2022-10-15T17:11:18;15.80;99.90
37240;DHT22;23130;48.760;9.178;2022-10-15T17:13:45;15.80;99.90
37240;DHT22;23130;48.760;9.178;2022-10-15T17:16:16;15.90;99.90
37240;DHT22;23130;48.760;9.178;2022-10-15T17:18:43;15.80;99.90
37240;DHT22;23130;48.760;9.178;2022-10-15T17:21:10;15.80;99.90
37240;DHT22;23130;48.760;9.178;2022-10-15T17:23:37;15.80;99.90
37240;DHT22;23130;48.760;9.178;2022-10-15T17:26:08;15.70;99.90
37240;DHT22;23130;48.760;9.178;2022-10-15T17:28:33;15.70;99.90
37240;DHT22;23130;48.760;9.178;2022-10-15T17:31:04;15.70;99.90
37240;DHT22;23130;48.760;9.178;2022-10-15T17:33:31;15.70;99.90
37240;DHT22;23130;48.760;9.178;2022-10-15T17:36:00;15.70;99.90